Time;durP1;ratioP1;P1;durP2;ratioP2;P2;SDS_P1;SDS_P2;PMS_P1;PMS_P2;Temp;Humidity;BMP_temperature;BMP_pressure;BME280_temperature;BME280_humidity;BME280_pressure;Samples;Min_cycle;Max_cycle;Signal;HPM_P1;HPM_P2
2023/10/18 00:01:24;;;;;;;11.27;4.75;;;;;;;11.66;100.00;94445.97;5010030;28;20050;-81
2023/10/18 00:03:49;;;;;;;9.80;4.60;;;;;;;11.85;100.00;94443.47;4994078;28;20034;-81
2023/10/18 00:06:21;;;;;;;6.05;3.72;;;;;;;11.94;100.00;94442.88;5010358;28;20109;-81
2023/10/18 00:08:47;;;;;;;8.38;3.92;;;;;;;12.05;100.00;94435.75;4995049;28;20149;-81
2023/10/18 00:11:16;;;;;;;9.13;4.45;;;;;;;12.06;100.00;94430.22;4994729;28;20137;-81
2023/10/18 00:13:43;;;;;;;7.78;3.85;;;;;;;12.05;100.00;94425.25;4994839;28;20045;-81
2023/10/18 00:16:09;;;;;;;15.68;4.82;;;;;;;12.08;100.00;94428.09;4993478;28;20128;-81
2023/10/18 00:18:53;;;;;;;10.10;4.00;;;;;;;11.99;100.00;94435.00;4994942;28;20407;-81
2023/10/18 00:21:47;;;;;;;8.90;4.70;;;;;;;11.73;100.00;94440.41;5009240;28;20046;-81
2023/10/18 00:24:12;;;;;;;9.88;5.00;;;;;;;11.78;100.00;94436.97;4994853;28;20038;-81
2023/10/18 00:27:15;;;;;;;11.00;5.20;;;;;;;11.94;100.00;94437.63;4994830;28;20130;-81
2023/10/18 00:29:59;;;;;;;9.82;5.38;;;;;;;11.96;100.00;94438.16;4994779;28;20088;-81
2023/10/18 00:32:28;;;;;;;9.80;5.60;;;;;;;11.96;100.00;94440.78;4994352;28;20473;-81
2023/10/18 00:34:54;;;;;;;8.35;3.70;;;;;;;12.00;100.00;94439.94;4994986;28;20053;-81
2023/10/18 00:40:07;;;;;;;13.30;5.63;;;;;;;12.09;100.00;94434.94;5007532;28;20037;-81
2023/10/18 00:42:52;;;;;;;14.20;5.35;;;;;;;11.73;100.00;94435.16;4994298;28;20454;-81
2023/10/18 00:45:38;;;;;;;10.60;6.00;;;;;;;11.16;100.00;94428.34;4994898;28;20088;-81
2023/10/18 00:48:06;;;;;;;11.50;5.28;;;;;;;11.28;100.00;94435.13;5012382;28;20085;-81
2023/10/18 00:50:34;;;;;;;10.90;5.13;;;;;;;11.43;100.00;94429.03;4998356;28;20145;-81
2023/10/18 00:53:01;;;;;;;11.00;5.00;;;;;;;11.80;100.00;94425.13;4998016;28;20440;-81
2023/10/18 00:58:15;;;;;;;10.60;4.53;;;;;;;12.09;100.00;94411.28;5010920;28;20037;-81
2023/10/18 01:00:41;;;;;;;9.25;5.07;;;;;;;12.18;100.00;94410.72;4997899;28;20038;-81
2023/10/18 01:03:09;;;;;;;9.77;5.60;;;;;;;12.15;100.00;94412.03;5013339;28;20042;-81
2023/10/18 01:08:23;;;;;;;8.95;3.97;;;;;;;12.14;100.00;94403.38;5016375;28;20486;-81
2023/10/18 01:10:51;;;;;;;7.65;3.92;;;;;;;11.55;100.00;94398.00;5017270;28;20038;-81
2023/10/18 01:13:20;;;;;;;8.32;3.90;;;;;;;11.79;100.00;94399.16;5016221;28;20038;-81
2023/10/18 01:15:45;;;;;;;7.28;4.20;;;;;;;11.97;100.00;94397.69;4996489;28;20034;-81
2023/10/18 01:18:11;;;;;;;6.15;3.95;;;;;;;11.91;100.00;94391.72;5012163;28;20061;-81
2023/10/18 01:20:40;;;;;;;6.13;4.00;;;;;;;12.03;100.00;94386.16;5016468;28;20037;-81
2023/10/18 01:23:07;;;;;;;8.32;3.97;;;;;;;12.06;100.00;94387.44;5014977;28;20037;-81
2023/10/18 01:25:34;;;;;;;7.75;4.30;;;;;;;12.00;100.00;94384.81;5015653;28;20164;-81
2023/10/18 01:27:59;;;;;;;8.25;4.20;;;;;;;12.03;100.00;94380.88;5016760;28;20354;-81
2023/10/18 01:30:25;;;;;;;9.98;3.90;;;;;;;11.44;100.00;94378.91;5015430;28;20102;-81
2023/10/18 01:32:51;;;;;;;8.70;3.88;;;;;;;11.48;100.00;94373.09;5014205;28;20049;-81
2023/10/18 01:35:16;;;;;;;10.32;3.95;;;;;;;11.57;100.00;94376.72;5032033;28;20084;-81
2023/10/18 01:37:43;;;;;;;12.82;4.38;;;;;;;11.67;100.00;94381.13;5032173;28;20030;-81
2023/10/18 01:42:56;;;;;;;11.18;5.50;;;;;;;10.92;100.00;94373.13;5016522;28;20146;-81
2023/10/18 01:45:22;;;;;;;9.90;4.82;;;;;;;10.85;100.00;94383.16;5015905;28;20041;-81
2023/10/18 01:47:49;;;;;;;16.73;5.78;;;;;;;10.79;100.00;94366.66;5016774;28;20030;-81
2023/10/18 01:50:33;;;;;;;10.70;4.45;;;;;;;11.41;100.00;94366.34;5015390;28;20040;-81
2023/10/18 01:53:00;;;;;;;8.98;4.45;;;;;;;11.48;100.00;94363.41;5015196;28;20391;-81
2023/10/18 01:55:51;;;;;;;12.93;4.00;;;;;;;11.72;100.00;94370.59;5015354;28;20048;-81
2023/10/18 01:58:36;;;;;;;7.78;3.72;;;;;;;11.82;100.00;94372.38;5015160;28;20362;-81
2023/10/18 02:01:07;;;;;;;6.43;3.65;;;;;;;11.82;100.00;94362.63;5031101;28;20030;-81
2023/10/18 02:03:34;;;;;;;6.75;3.60;;;;;;;11.78;100.00;94368.72;5011079;28;20038;-81
2023/10/18 02:06:05;;;;;;;6.78;4.15;;;;;;;11.79;100.00;94372.91;5012123;28;20084;-81
2023/10/18 02:08:30;;;;;;;11.85;3.92;;;;;;;11.82;100.00;94362.63;5021119;28;20102;-81
2023/10/18 02:10:56;;;;;;;8.32;3.75;;;;;;;11.82;100.00;94375.00;4994811;28;20050;-81
2023/10/18 02:13:21;;;;;;;9.20;4.43;;;;;;;11.82;100.00;94361.88;4995011;28;20347;-80
2023/10/18 02:16:16;;;;;;;9.30;4.30;;;;;;;11.82;100.00;94359.25;4995883;28;20141;-81
2023/10/18 02:19:00;;;;;;;12.75;4.10;;;;;;;11.86;100.00;94362.88;5010930;28;20115;-81
2023/10/18 02:24:11;;;;;;;10.38;4.38;;;;;;;11.91;100.00;94357.59;4994971;28;20340;-80
2023/10/18 02:26:44;;;;;;;9.32;4.55;;;;;;;11.56;100.00;94352.34;4994845;28;20049;-81
2023/10/18 02:29:12;;;;;;;10.73;4.30;;;;;;;11.73;100.00;94348.56;4996133;28;20509;-80
2023/10/18 02:31:41;;;;;;;17.60;4.97;;;;;;;11.81;100.00;94352.44;4994838;28;20093;-81
2023/10/18 02:34:08;;;;;;;9.73;4.70;;;;;;;11.52;100.00;94361.03;4994780;28;20108;-81
2023/10/18 02:36:38;;;;;;;14.35;5.45;;;;;;;11.59;100.00;94366.75;4995713;28;20042;-80
2023/10/18 02:39:08;;;;;;;9.55;5.38;;;;;;;11.54;100.00;94361.53;4994303;28;20042;-81
2023/10/18 02:41:37;;;;;;;9.55;4.82;;;;;;;11.39;100.00;94362.41;4995427;28;20061;-80
2023/10/18 02:44:07;;;;;;;12.63;5.80;;;;;;;11.58;100.00;94365.19;4994797;28;20089;-81
2023/10/18 02:46:33;;;;;;;12.00;7.93;;;;;;;11.05;100.00;94363.94;4994392;28;20384;-81
2023/10/18 02:49:00;;;;;;;18.35;8.65;;;;;;;10.79;100.00;94360.63;4995806;28;20042;-81
2023/10/18 02:51:28;;;;;;;14.50;7.95;;;;;;;10.77;100.00;94360.09;4995534;28;20038;-81
2023/10/18 02:56:59;;;;;;;16.33;9.07;;;;;;;10.45;100.00;94352.34;4995117;28;20471;-81
2023/10/18 02:59:43;;;;;;;20.40;9.32;;;;;;;10.94;100.00;94354.53;5003301;28;20041;-81
2023/10/18 03:02:15;;;;;;;19.67;10.13;;;;;;;10.48;100.00;94345.78;5013927;28;20393;-80
2023/10/18 03:04:42;;;;;;;18.48;10.02;;;;;;;10.48;100.00;94334.53;5012521;28;20458;-81
2023/10/18 03:07:12;;;;;;;15.30;8.32;;;;;;;11.02;100.00;94338.22;5014767;28;20037;-80
2023/10/18 03:09:41;;;;;;;18.95;7.55;;;;;;;10.97;100.00;94349.50;5014787;28;20038;-81
2023/10/18 03:12:13;;;;;;;14.30;7.88;;;;;;;10.79;100.00;94340.44;5014901;28;20037;-81
2023/10/18 03:14:39;;;;;;;16.27;7.70;;;;;;;11.07;100.00;94338.22;5013633;28;20472;-81
2023/10/18 03:17:41;;;;;;;15.77;7.72;;;;;;;11.24;100.00;94339.69;5014652;28;20100;-81
2023/10/18 03:20:02;;;;;;;12.02;8.07;;;;;;;11.29;100.00;94337.03;5016230;28;20052;-81
2023/10/18 03:22:31;;;;;;;12.60;7.70;;;;;;;11.47;100.00;94330.38;4997076;28;20025;-81
2023/10/18 03:24:59;;;;;;;17.73;7.95;;;;;;;11.57;100.00;94338.16;5014438;28;20041;-81
2023/10/18 03:27:29;;;;;;;13.55;7.35;;;;;;;11.56;100.00;94333.97;5013730;28;20530;-81
2023/10/18 03:29:58;;;;;;;16.00;8.02;;;;;;;11.29;100.00;94340.44;5015086;28;20442;-81
2023/10/18 03:32:24;;;;;;;12.25;7.75;;;;;;;11.30;100.00;94339.41;5013192;28;20529;-81
2023/10/18 03:34:52;;;;;;;11.73;7.63;;;;;;;11.41;100.00;94339.34;5014845;28;20068;-80
2023/10/18 03:37:21;;;;;;;16.42;7.57;;;;;;;11.45;100.00;94335.88;5012610;28;20076;-81
2023/10/18 03:39:53;;;;;;;12.52;7.55;;;;;;;11.59;100.00;94337.88;5029564;28;20053;-81
2023/10/18 03:42:44;;;;;;;14.98;8.20;;;;;;;11.65;100.00;94342.03;5029472;28;20038;-81
2023/10/18 03:45:19;;;;;;;12.25;7.45;;;;;;;11.67;100.00;94337.31;4996903;28;20037;-80
2023/10/18 03:47:57;;;;;;;12.40;6.55;;;;;;;11.51;100.00;94327.97;4994616;28;20037;-80
2023/10/18 03:50:28;;;;;;;11.25;6.25;;;;;;;11.70;100.00;94328.88;4994594;28;20061;-80
2023/10/18 03:53:13;;;;;;;14.18;7.18;;;;;;;11.53;100.00;94331.13;4994647;28;20038;-80
2023/10/18 03:55:39;;;;;;;16.70;6.97;;;;;;;11.69;100.00;94329.94;4994785;28;20038;-80
2023/10/18 03:58:05;;;;;;;12.20;7.40;;;;;;;11.11;100.00;94323.50;4993345;28;20133;-80
2023/10/18 04:00:46;;;;;;;10.07;7.03;;;;;;;11.21;100.00;94319.25;4993605;28;20109;-81
2023/10/18 04:03:12;;;;;;;12.52;6.95;;;;;;;10.97;100.00;94312.81;4994580;28;20038;-80
2023/10/18 04:05:45;;;;;;;12.93;7.95;;;;;;;11.34;100.00;94318.66;4993381;28;20038;-81
2023/10/18 04:08:14;;;;;;;12.50;7.88;;;;;;;11.29;100.00;94316.03;4994527;28;20084;-80
2023/10/18 04:10:40;;;;;;;13.02;8.35;;;;;;;11.57;100.00;94308.50;5013198;28;20052;-80
2023/10/18 04:13:25;;;;;;;20.23;10.93;;;;;;;10.66;100.00;94306.97;5013922;28;20124;-81
2023/10/18 04:16:00;;;;;;;21.45;11.68;;;;;;;10.79;100.00;94306.38;5013646;28;20107;-81
2023/10/18 04:18:28;;;;;;;22.10;12.00;;;;;;;10.74;100.00;94312.41;5008320;28;20045;-81
2023/10/18 04:20:54;;;;;;;22.23;11.98;;;;;;;10.98;100.00;94308.38;4999151;28;20077;-80
2023/10/18 04:23:38;;;;;;;23.10;12.70;;;;;;;10.83;100.00;94309.22;5015283;28;20038;-81
2023/10/18 04:26:05;;;;;;;19.25;12.32;;;;;;;11.21;100.00;94308.78;5004741;28;20037;-81
2023/10/18 04:28:37;;;;;;;22.00;12.70;;;;;;;11.31;100.00;94303.44;5017989;28;20411;-82
2023/10/18 04:31:04;;;;;;;17.67;12.25;;;;;;;11.34;100.00;94304.75;5016673;28;20053;-81
2023/10/18 04:33:53;;;;;;;29.50;12.32;;;;;;;11.17;100.00;94304.06;5017561;28;20048;-81
2023/10/18 04:36:22;;;;;;;25.20;11.77;;;;;;;11.35;100.00;94296.63;5018173;28;20152;-82
2023/10/18 04:39:27;;;;;;;18.15;11.95;;;;;;;11.26;100.00;94295.63;5016004;28;20046;-81
2023/10/18 04:41:53;;;;;;;20.23;13.00;;;;;;;10.53;100.00;94292.59;5016767;28;20065;-81
2023/10/18 04:44:19;;;;;;;22.10;12.85;;;;;;;11.01;100.00;94300.75;5019166;28;20034;-81
2023/10/18 04:46:47;;;;;;;23.95;13.55;;;;;;;11.16;100.00;94291.22;5019393;28;20037;-82
2023/10/18 04:54:47;;;;;;;20.52;11.75;;;;;;;11.40;100.00;94293.16;5019891;28;20389;-80
2023/10/18 04:57:12;;;;;;;16.98;11.05;;;;;;;11.29;100.00;94295.06;5020121;28;20032;-81
2023/10/18 04:59:50;;;;;;;17.33;11.32;;;;;;;11.33;100.00;94293.47;5019804;28;20451;-81
2023/10/18 05:02:38;;;;;;;18.38;11.85;;;;;;;11.45;100.00;94291.28;5018488;28;20033;-81
2023/10/18 05:05:10;;;;;;;20.10;12.30;;;;;;;11.43;100.00;94290.78;5019952;28;20041;-81
2023/10/18 05:10:39;;;;;;;21.25;12.48;;;;;;;11.29;100.00;94288.00;5017849;28;20366;-80
2023/10/18 05:13:18;;;;;;;22.67;12.35;;;;;;;11.28;100.00;94293.50;5018952;28;20034;-81
2023/10/18 05:18:30;;;;;;;22.85;13.65;;;;;;;11.24;100.00;94298.50;5019397;28;20064;-81
2023/10/18 05:20:56;;;;;;;21.73;13.27;;;;;;;11.33;100.00;94293.47;5019162;28;20029;-81
2023/10/18 05:23:25;;;;;;;19.92;13.48;;;;;;;11.39;100.00;94304.69;5019391;28;20034;-81
2023/10/18 05:28:47;;;;;;;28.80;14.23;;;;;;;11.45;100.00;94290.50;4999158;28;20092;-81
2023/10/18 05:31:27;;;;;;;22.55;13.68;;;;;;;11.45;100.00;94293.91;4998734;28;20438;-81
2023/10/18 05:34:48;;;;;;;46.30;14.32;;;;;;;11.24;100.00;94293.25;4997288;28;20053;-81
2023/10/18 05:39:48;;;;;;;38.20;14.30;;;;;;;11.15;100.00;94295.69;4999901;28;20517;-81
2023/10/18 05:42:20;;;;;;;27.65;14.95;;;;;;;11.21;100.00;94299.06;4999599;28;20084;-81
2023/10/18 05:44:47;;;;;;;26.08;14.48;;;;;;;11.35;100.00;94299.25;4999529;28;20064;-81
2023/10/18 05:47:13;;;;;;;21.48;14.10;;;;;;;11.24;100.00;94302.97;4998593;28;20057;-79
2023/10/18 05:49:59;;;;;;;22.27;14.60;;;;;;;11.39;100.00;94309.94;4998861;28;20166;-81
2023/10/18 05:52:49;;;;;;;31.88;14.55;;;;;;;11.08;100.00;94305.69;4999436;28;20431;-81
2023/10/18 05:55:10;;;;;;;27.15;14.00;;;;;;;11.31;100.00;94303.44;4999549;28;20093;-81
2023/10/18 05:57:37;;;;;;;21.98;12.85;;;;;;;11.35;100.00;94308.94;4999580;28;20030;-81
2023/10/18 06:03:43;;;;;;;18.63;12.05;;;;;;;11.39;100.00;94320.44;4999105;28;20072;-81
2023/10/18 06:06:28;;;;;;;22.05;13.20;;;;;;;11.48;100.00;94315.38;4998141;28;20084;-81
2023/10/18 06:08:57;;;;;;;22.85;13.23;;;;;;;11.57;100.00;94309.31;4999023;28;20030;-81
2023/10/18 06:11:22;;;;;;;23.40;12.90;;;;;;;11.49;100.00;94304.63;4999142;28;20108;-79
2023/10/18 06:13:48;;;;;;;19.98;12.60;;;;;;;11.56;100.00;94310.38;4999484;28;20034;-79
2023/10/18 06:16:19;;;;;;;19.88;13.13;;;;;;;11.52;100.00;94308.56;4999479;28;20034;-79
2023/10/18 06:21:58;;;;;;;19.75;12.20;;;;;;;11.54;100.00;94301.97;4997892;28;20038;-79
2023/10/18 06:24:26;;;;;;;21.53;12.17;;;;;;;11.44;100.00;94310.69;4998904;28;20076;-79
2023/10/18 06:26:52;;;;;;;21.48;13.13;;;;;;;11.18;100.00;94316.09;4998130;28;20745;-79
2023/10/18 06:29:23;;;;;;;19.55;12.00;;;;;;;11.32;100.00;94318.13;4998083;28;20124;-81
2023/10/18 06:32:10;;;;;;;17.95;11.05;;;;;;;11.36;100.00;94319.16;4997315;28;20026;-81
2023/10/18 06:34:36;;;;;;;20.88;11.40;;;;;;;11.52;100.00;94329.56;4998866;28;20041;-81
2023/10/18 06:37:07;;;;;;;16.77;11.65;;;;;;;11.59;100.00;94317.69;4997642;28;20030;-81
2023/10/18 06:39:35;;;;;;;18.20;11.57;;;;;;;11.52;100.00;94314.56;4997690;28;20477;-81
2023/10/18 06:45:15;;;;;;;65.83;13.87;;;;;;;11.51;100.00;94320.09;4998020;28;20474;-81
2023/10/18 06:47:44;;;;;;;31.05;11.98;;;;;;;11.57;100.00;94322.44;5013719;28;20105;-81
2023/10/18 06:50:11;;;;;;;23.15;11.82;;;;;;;11.57;100.00;94322.44;4997399;28;20030;-81
2023/10/18 06:52:52;;;;;;;18.38;12.52;;;;;;;11.61;100.00;94320.00;4997544;28;20105;-81
2023/10/18 06:55:43;;;;;;;18.67;12.02;;;;;;;11.51;100.00;94322.72;4997098;28;20029;-81
2023/10/18 06:58:41;;;;;;;121.70;16.23;;;;;;;10.91;100.00;94318.38;4997073;28;20038;-81
2023/10/18 07:01:14;;;;;;;124.88;13.95;;;;;;;11.03;100.00;94318.81;4997100;28;20041;-82
2023/10/18 07:03:42;;;;;;;90.32;12.00;;;;;;;11.14;100.00;94320.34;4996949;28;20058;-82
2023/10/18 07:06:16;;;;;;;29.88;10.00;;;;;;;11.10;100.00;94329.81;4997115;28;20064;-82
2023/10/18 07:09:09;;;;;;;431.48;26.27;;;;;;;11.10;100.00;94329.81;4998238;28;20044;-82
2023/10/18 07:14:20;;;;;;;332.50;21.98;;;;;;;10.59;100.00;94342.06;4996862;28;20128;-82
2023/10/18 07:17:04;;;;;;;17.05;11.48;;;;;;;11.10;100.00;94342.91;4996635;28;20459;-82
2023/10/18 07:19:41;;;;;;;92.32;13.30;;;;;;;11.35;100.00;94332.53;4997763;28;20133;-82
2023/10/18 07:22:06;;;;;;;244.80;16.98;;;;;;;11.31;100.00;94329.66;4996510;28;20105;-82
2023/10/18 07:24:55;;;;;;;53.30;12.02;;;;;;;11.64;100.00;94337.84;4997031;28;20070;-82
2023/10/18 07:27:23;;;;;;;162.75;15.35;;;;;;;11.35;100.00;94335.16;4997608;28;20030;-82
2023/10/18 07:30:43;;;;;;;264.25;19.63;;;;;;;11.35;100.00;94338.59;4996475;28;20026;-82
2023/10/18 07:33:09;;;;;;;217.93;17.40;;;;;;;11.49;100.00;94340.59;4997823;28;20067;-81
2023/10/18 07:35:36;;;;;;;236.90;18.88;;;;;;;11.58;100.00;94331.06;4997825;28;20061;-82
2023/10/18 07:38:25;;;;;;;387.52;25.85;;;;;;;11.06;100.00;94334.03;4996380;28;20045;-82
2023/10/18 07:40:59;;;;;;;546.33;30.10;;;;;;;10.54;100.00;94333.44;4997647;28;20064;-81
2023/10/18 07:43:25;;;;;;;1106.40;58.35;;;;;;;10.21;100.00;94343.47;4996176;28;20030;-82
2023/10/18 07:46:28;;;;;;;30.95;11.25;;;;;;;11.07;100.00;94335.59;4996510;28;20030;-82
2023/10/18 07:49:16;;;;;;;49.42;11.68;;;;;;;11.22;100.00;94342.56;4997531;28;20065;-82
2023/10/18 07:51:43;;;;;;;20.45;11.18;;;;;;;11.32;100.00;94341.72;4996363;28;20084;-81
2023/10/18 07:59:45;;;;;;;14.93;8.95;;;;;;;11.45;100.00;94346.38;4996235;28;20057;-82
2023/10/18 08:02:19;;;;;;;;;;;;;;;11.48;100.00;94339.00;4997776;28;20092;-82
2023/10/18 08:04:47;;;;;;;126.15;11.65;;;;;;;11.48;100.00;94344.25;4996156;28;19995;-82
2023/10/18 08:07:19;;;;;;;441.92;22.80;;;;;;;11.28;100.00;94343.34;4996228;28;20042;-82
2023/10/18 08:12:30;;;;;;;29.67;10.30;;;;;;;11.53;100.00;94349.47;4995997;28;20501;-81
2023/10/18 08:15:16;;;;;;;16.33;10.48;;;;;;;11.65;100.00;94342.03;4997329;28;20351;-82
2023/10/18 08:17:46;;;;;;;115.57;13.20;;;;;;;11.80;100.00;94341.13;4997032;28;20030;-82
2023/10/18 08:26:03;;;;;;;28.00;11.23;;;;;;;12.21;100.00;94341.84;4996972;28;20355;-82
2023/10/18 08:28:47;;;;;;;16.25;10.20;;;;;;;12.26;100.00;94345.22;4997310;28;20038;-82
2023/10/18 08:34:17;;;;;;;11.30;8.43;;;;;;;12.43;100.00;94342.16;4995920;28;20443;-82
2023/10/18 08:39:28;;;;;;;12.75;8.38;;;;;;;12.92;100.00;94338.75;4995929;28;20432;-82
2023/10/18 08:41:58;;;;;;;10.98;8.18;;;;;;;12.79;100.00;94343.63;4996747;28;20125;-82
2023/10/18 08:44:24;;;;;;;11.38;7.68;;;;;;;13.11;100.00;94349.25;4997112;28;20080;-82
2023/10/18 08:49:23;;;;;;;12.23;8.57;;;;;;;13.08;100.00;94348.00;4995759;28;20316;-82
2023/10/18 08:52:11;;;;;;;14.05;7.85;;;;;;;12.97;100.00;94339.44;4996899;28;20504;-82
2023/10/18 08:54:41;;;;;;;11.77;8.45;;;;;;;12.91;100.00;94343.19;4995789;28;20033;-82
2023/10/18 08:57:43;;;;;;;14.48;9.30;;;;;;;13.09;100.00;94336.41;4995565;28;20034;-82
2023/10/18 09:02:50;;;;;;;16.98;9.63;;;;;;;12.62;100.00;94335.38;4996970;28;20039;-82
2023/10/18 09:08:42;;;;;;;12.70;9.05;;;;;;;13.50;100.00;94332.44;4998171;28;20069;-82
2023/10/18 09:14:10;;;;;;;11.43;8.00;;;;;;;13.43;100.00;94334.63;4999193;28;20049;-82
2023/10/18 09:16:38;;;;;;;15.63;8.82;;;;;;;13.57;100.00;94345.25;5000289;28;20034;-82
2023/10/18 09:19:05;;;;;;;14.25;9.18;;;;;;;13.76;100.00;94341.78;4999086;28;20045;-82
2023/10/18 09:21:50;;;;;;;13.25;9.10;;;;;;;13.74;100.00;94336.81;5014793;28;20034;-82
2023/10/18 09:24:34;;;;;;;12.00;8.38;;;;;;;13.82;100.00;94340.66;5000173;28;20038;-82
2023/10/18 09:30:04;;;;;;;96.97;13.55;;;;;;;11.65;100.00;94339.41;4999855;28;20046;-82
2023/10/18 09:32:32;;;;;;;81.95;14.68;;;;;;;12.11;100.00;94335.63;4999887;28;20348;-82
2023/10/18 09:35:26;;;;;;;64.10;12.85;;;;;;;11.98;100.00;94334.41;4998524;28;20060;-82
2023/10/18 09:37:53;;;;;;;24.55;12.05;;;;;;;11.90;100.00;94342.13;4999936;28;20031;-82
2023/10/18 09:40:18;;;;;;;23.40;11.80;;;;;;;12.85;100.00;94333.81;4998527;28;20081;-82
2023/10/18 09:48:12;;;;;;;22.70;13.00;;;;;;;13.74;100.00;94336.03;4999514;28;19916;-82
2023/10/18 09:50:39;;;;;;;31.08;14.35;;;;;;;13.37;100.00;94335.75;4998502;28;20435;-82
2023/10/18 09:53:05;;;;;;;21.70;13.93;;;;;;;14.08;100.00;94327.84;4998501;28;20027;-82
2023/10/18 09:58:41;;;;;;;27.50;15.80;;;;;;;13.82;100.00;94330.88;4998243;28;20092;-82
2023/10/18 10:01:14;;;;;;;26.83;14.13;;;;;;;13.98;100.00;94326.16;4999649;28;20026;-82
2023/10/18 10:03:56;;;;;;;29.75;15.98;;;;;;;14.14;100.00;94326.69;4998357;28;20344;-82
2023/10/18 10:06:47;;;;;;;30.15;15.52;;;;;;;13.90;100.00;94311.00;4998096;28;20018;-82
2023/10/18 10:09:13;;;;;;;33.45;18.63;;;;;;;13.96;100.00;94309.88;4999368;28;20034;-82
2023/10/18 10:12:01;;;;;;;30.33;17.38;;;;;;;13.83;100.00;94323.78;4998806;28;20443;-82
2023/10/18 10:17:30;;;;;;;27.02;16.17;;;;;;;13.94;100.00;94317.28;4998818;28;20034;-82
2023/10/18 10:20:13;;;;;;;25.38;15.95;;;;;;;13.76;100.00;94310.19;4998492;28;20038;-82
2023/10/18 10:22:41;;;;;;;27.08;16.42;;;;;;;13.82;100.00;94309.06;4997861;28;20030;-82
2023/10/18 10:25:11;;;;;;;27.30;16.98;;;;;;;13.95;100.00;94303.03;4997764;28;20030;-82
2023/10/18 10:30:03;;;;;;;27.17;16.65;;;;;;;13.94;100.00;94298.84;4998384;28;20045;-82
2023/10/18 10:32:30;;;;;;;28.70;16.90;;;;;;;13.70;100.00;94307.66;4997591;28;20044;-82
2023/10/18 10:38:20;;;;;;;29.83;16.80;;;;;;;13.91;100.00;94304.66;4998539;28;20085;-82
2023/10/18 10:40:49;;;;;;;26.02;15.70;;;;;;;13.82;100.00;94309.06;4998500;28;20030;-82
2023/10/18 10:43:18;;;;;;;27.67;17.23;;;;;;;13.13;100.00;94300.56;4998704;28;20064;-82
2023/10/18 10:48:16;;;;;;;27.77;16.38;;;;;;;13.76;100.00;94289.13;4997688;28;20073;-82
2023/10/18 10:50:52;;;;;;;29.50;17.02;;;;;;;13.01;100.00;94287.84;4998167;28;20101;-82
2023/10/18 10:53:43;;;;;;;26.70;16.65;;;;;;;13.65;100.00;94281.41;4998274;28;20089;-82
2023/10/18 10:56:53;;;;;;;34.40;18.60;;;;;;;13.28;100.00;94288.25;4997337;28;20061;-82
2023/10/18 10:59:22;;;;;;;29.85;17.98;;;;;;;12.95;100.00;94283.72;4998056;28;20026;-82
2023/10/18 11:04:57;;;;;;;29.25;16.58;;;;;;;13.58;100.00;94281.00;4997292;28;20070;-82
2023/10/18 11:07:25;;;;;;;27.27;16.40;;;;;;;13.52;100.00;94276.88;4998394;28;20034;-82
2023/10/18 11:10:15;;;;;;;28.10;16.58;;;;;;;13.71;100.00;94279.50;4996834;28;20023;-82
2023/10/18 11:12:41;;;;;;;28.80;17.33;;;;;;;13.51;100.00;94267.44;4996595;28;20099;-81
2023/10/18 11:15:13;;;;;;;31.17;18.63;;;;;;;12.79;100.00;94270.00;4998096;28;20034;-82
2023/10/18 11:17:42;;;;;;;33.35;17.85;;;;;;;13.30;100.00;94267.72;4996668;28;20427;-82
2023/10/18 11:20:34;;;;;;;28.33;17.25;;;;;;;13.00;100.00;94265.25;5013390;28;20034;-81
2023/10/18 11:23:00;;;;;;;24.35;15.68;;;;;;;12.94;100.00;94263.75;4996799;28;20034;-81
2023/10/18 11:25:33;;;;;;;23.83;14.93;;;;;;;12.82;100.00;94268.63;4996434;28;20492;-81
2023/10/18 11:28:18;;;;;;;29.58;16.55;;;;;;;12.46;100.00;94272.50;5015478;28;20041;-81
2023/10/18 11:30:44;;;;;;;23.25;14.93;;;;;;;12.66;100.00;94260.94;5010496;28;20030;-82
2023/10/18 11:33:16;;;;;;;21.98;14.18;;;;;;;13.17;100.00;94257.91;5012659;28;20022;-82
2023/10/18 11:35:48;;;;;;;22.60;13.90;;;;;;;13.20;100.00;94247.59;5013922;28;20021;-82
2023/10/18 11:38:14;;;;;;;20.63;12.93;;;;;;;13.21;100.00;94240.50;5016155;28;20034;-82
2023/10/18 11:40:43;;;;;;;24.00;13.25;;;;;;;13.38;100.00;94239.97;5016003;28;20351;-82
2023/10/18 11:46:13;;;;;;;23.08;13.00;;;;;;;12.54;100.00;94236.94;5017052;28;20043;-81
2023/10/18 11:48:40;;;;;;;20.48;13.50;;;;;;;12.80;100.00;94240.03;5017125;28;20053;-81
2023/10/18 11:54:12;;;;;;;22.65;13.77;;;;;;;11.73;100.00;94219.94;5016907;28;20096;-81
2023/10/18 11:56:38;;;;;;;184.07;89.03;;;;;;;12.18;100.00;94232.13;5017141;28;20431;-81
2023/10/18 11:59:23;;;;;;;65.53;21.63;;;;;;;12.33;100.00;94228.50;5016730;28;20029;-81
2023/10/18 12:02:13;;;;;;;37.17;22.13;;;;;;;12.70;100.00;94219.13;5031406;28;20328;-81
2023/10/18 12:04:38;;;;;;;59.58;35.20;;;;;;;12.99;100.00;94218.97;5016360;28;20034;-82
2023/10/18 12:07:04;;;;;;;34.80;17.83;;;;;;;12.24;100.00;94229.16;5016480;28;20044;-81
2023/10/18 12:09:42;;;;;;;45.78;27.83;;;;;;;12.21;100.00;94224.47;5014776;28;20332;-83
2023/10/18 12:12:12;;;;;;;40.40;22.83;;;;;;;12.39;100.00;94209.78;5016970;28;20108;-82
2023/10/18 12:14:57;;;;;;;24.98;16.20;;;;;;;12.52;100.00;94204.91;5017143;28;20028;-83
2023/10/18 12:17:22;;;;;;;28.80;18.23;;;;;;;12.59;100.00;94205.34;5016726;28;20087;-82
2023/10/18 12:19:48;;;;;;;38.10;22.30;;;;;;;12.75;100.00;94194.63;5015293;28;20380;-83
2023/10/18 12:22:36;;;;;;;32.47;17.33;;;;;;;12.86;100.00;94199.44;5031721;28;20343;-83
2023/10/18 12:25:02;;;;;;;30.05;17.60;;;;;;;12.62;100.00;94209.22;5016869;28;20029;-83
2023/10/18 12:27:34;;;;;;;39.10;18.63;;;;;;;12.45;100.00;94210.50;5015715;28;20030;-83
2023/10/18 12:30:09;;;;;;;30.05;18.02;;;;;;;12.77;100.00;94206.41;5016750;28;20398;-82
2023/10/18 12:35:41;;;;;;;27.45;16.98;;;;;;;13.11;100.00;94192.22;4996946;28;20037;-82
2023/10/18 12:38:14;;;;;;;33.05;17.55;;;;;;;13.02;100.00;94191.31;4997072;28;20026;-82
2023/10/18 12:43:26;;;;;;;32.75;17.48;;;;;;;13.42;100.00;94180.44;5017103;28;20036;-82
2023/10/18 12:45:51;;;;;;;29.77;17.40;;;;;;;13.28;100.00;94185.66;5018975;28;20034;-82
2023/10/18 12:48:23;;;;;;;39.53;19.60;;;;;;;12.97;100.00;94189.53;5018308;28;20085;-82
2023/10/18 12:50:52;;;;;;;32.92;18.55;;;;;;;12.59;100.00;94186.94;5018609;28;20029;-82
2023/10/18 12:53:38;;;;;;;33.63;18.95;;;;;;;12.79;100.00;94179.81;5018808;28;20037;-82
2023/10/18 12:58:48;;;;;;;26.95;15.05;;;;;;;13.05;100.00;94166.31;5020004;28;20061;-82
2023/10/18 13:01:16;;;;;;;26.45;15.30;;;;;;;12.65;100.00;94164.00;5019984;28;20061;-82
2023/10/18 13:04:01;;;;;;;27.48;15.13;;;;;;;13.00;100.00;94154.81;5019923;28;20030;-82
2023/10/18 13:06:41;;;;;;;27.58;15.80;;;;;;;12.75;100.00;94158.56;5018917;28;20106;-82
2023/10/18 13:09:29;;;;;;;28.23;15.80;;;;;;;12.62;100.00;94151.41;5018749;28;20439;-82
2023/10/18 13:12:00;;;;;;;31.25;19.08;;;;;;;13.11;100.00;94158.03;5019943;28;20026;-81
2023/10/18 13:14:32;;;;;;;29.27;15.68;;;;;;;12.83;100.00;94157.94;5018590;28;20030;-82
2023/10/18 13:17:17;;;;;;;22.75;13.80;;;;;;;13.08;100.00;94145.47;5019963;28;20084;-82
2023/10/18 13:19:44;;;;;;;27.63;16.10;;;;;;;13.11;100.00;94139.63;5016023;28;20034;-82
2023/10/18 13:22:17;;;;;;;25.95;15.57;;;;;;;13.15;100.00;94135.34;5012562;28;20057;-82
2023/10/18 13:28:07;;;;;;;35.00;16.52;;;;;;;12.65;100.00;94146.38;4999823;28;20029;-82
2023/10/18 13:30:39;;;;;;;33.53;16.95;;;;;;;12.48;100.00;94149.53;5009962;28;20029;-82
2023/10/18 13:33:23;;;;;;;35.88;17.25;;;;;;;12.26;100.00;94148.22;5019585;28;20036;-82
2023/10/18 13:35:52;;;;;;;28.67;16.27;;;;;;;12.28;100.00;94164.47;5016334;28;20041;-82
2023/10/18 13:38:19;;;;;;;28.17;15.55;;;;;;;12.37;100.00;94150.72;5034222;28;20116;-82
2023/10/18 13:40:46;;;;;;;72.57;29.60;;;;;;;12.90;100.00;94139.19;5034235;28;20022;-82
2023/10/18 13:43:13;;;;;;;140.70;49.50;;;;;;;13.18;100.00;94126.09;5018921;28;20025;-82